createdAt,value
2023-05-09T00:00:30.901Z,75.65
2023-05-09T00:01:32.841Z,75.65
2023-05-09T00:02:34.937Z,75.85
2023-05-09T00:03:36.865Z,76.79
2023-05-09T00:04:39.018Z,75.50
2023-05-09T00:05:41.944Z,75.83
2023-05-09T00:06:43.836Z,76.01
2023-05-09T00:07:45.782Z,75.95
2023-05-09T00:08:47.611Z,76.09
2023-05-09T00:09:49.382Z,76.51
2023-05-09T00:10:51.302Z,75.62
2023-05-09T00:11:53.219Z,76.14
2023-05-09T00:12:55.206Z,75.69
2023-05-09T00:13:57.857Z,75.70
2023-05-09T00:14:59.952Z,75.59
2023-05-09T00:16:01.921Z,76.10
2023-05-09T00:17:04.073Z,76.42
2023-05-09T00:18:05.935Z,75.61
2023-05-09T00:19:07.797Z,75.82
2023-05-09T00:20:12.673Z,76.48
2023-05-09T00:21:14.686Z,77.16
2023-05-09T00:22:17.391Z,77.67
2023-05-09T00:23:19.219Z,78.19
2023-05-09T00:24:21.079Z,78.26
2023-05-09T00:25:22.926Z,78.08
2023-05-09T00:26:24.900Z,78.43
2023-05-09T00:27:26.812Z,77.84
2023-05-09T00:28:28.627Z,77.90
2023-05-09T00:29:30.537Z,78.05
2023-05-09T00:30:32.416Z,78.17
2023-05-09T00:31:34.485Z,78.15
2023-05-09T00:32:37.231Z,78.21
2023-05-09T00:33:39.445Z,77.36
2023-05-09T00:34:41.425Z,76.95
2023-05-09T00:35:43.383Z,76.51
2023-05-09T00:36:45.282Z,76.30
2023-05-09T00:37:47.181Z,76.85
2023-05-09T00:38:49.294Z,76.67
2023-05-09T00:39:51.165Z,76.37
2023-05-09T00:40:52.992Z,76.53
2023-05-09T00:41:56.372Z,76.15
2023-05-09T00:42:59.425Z,75.57
2023-05-09T00:44:01.278Z,75.27
2023-05-09T00:45:03.323Z,75.42
2023-05-09T00:46:05.466Z,75.79
2023-05-09T00:47:07.734Z,76.35
2023-05-09T00:48:09.697Z,76.75
2023-05-09T00:49:12.758Z,77.17
2023-05-09T00:50:15.434Z,76.85
2023-05-09T00:51:17.288Z,76.75
2023-05-09T00:52:23.508Z,76.57
2023-05-09T00:53:25.673Z,75.89
2023-05-09T00:54:27.595Z,75.43
2023-05-09T00:55:29.494Z,75.15
2023-05-09T00:56:31.586Z,75.12
2023-05-09T00:57:33.689Z,74.91
2023-05-09T00:58:35.838Z,75.13
2023-05-09T00:59:37.705Z,75.52
2023-05-09T01:00:39.618Z,76.00
2023-05-09T01:01:41.606Z,76.11
2023-05-09T01:02:45.274Z,76.48
2023-05-09T01:03:47.754Z,76.53
2023-05-09T01:04:49.812Z,76.36
2023-05-09T01:05:51.673Z,75.71
2023-05-09T01:06:53.517Z,75.32
2023-05-09T01:08:07.379Z,74.90
2023-05-09T01:09:35.655Z,75.30
2023-05-09T01:10:50.197Z,75.39
2023-05-09T01:12:12.950Z,75.58
2023-05-09T01:13:14.787Z,75.41
2023-05-09T01:14:31.137Z,75.24
2023-05-09T01:15:51.952Z,74.98
2023-05-09T01:16:59.787Z,74.72
2023-05-09T01:18:07.247Z,74.98
2023-05-09T01:19:27.590Z,75.03
2023-05-09T01:20:36.612Z,75.53
2023-05-09T01:21:41.393Z,74.98
2023-05-09T01:22:48.945Z,76.01
2023-05-09T01:24:09.599Z,77.79
2023-05-09T01:25:11.496Z,77.95
2023-05-09T01:26:19.263Z,78.13
2023-05-09T01:27:23.619Z,78.18
2023-05-09T01:28:31.595Z,77.93
2023-05-09T01:29:33.391Z,78.23
2023-05-09T01:30:37.671Z,77.08
2023-05-09T01:31:41.561Z,76.93
2023-05-09T01:32:44.213Z,77.30
2023-05-09T01:33:47.276Z,77.00
2023-05-09T01:34:50.489Z,77.02
2023-05-09T01:35:56.134Z,76.92
2023-05-09T01:37:01.028Z,77.58
2023-05-09T01:38:05.758Z,78.35
2023-05-09T01:39:09.357Z,78.72
2023-05-09T01:40:14.240Z,78.50
2023-05-09T01:41:17.396Z,78.90
2023-05-09T01:42:21.009Z,78.42
2023-05-09T01:43:23.673Z,77.98
2023-05-09T01:44:25.833Z,78.09
2023-05-09T01:45:28.458Z,79.05
2023-05-09T01:46:31.001Z,78.33
2023-05-09T01:47:33.364Z,78.23
2023-05-09T01:48:36.539Z,77.79
2023-05-09T01:49:40.196Z,77.87
2023-05-09T01:50:43.744Z,77.96
2023-05-09T01:51:45.655Z,77.15
2023-05-09T01:52:49.673Z,76.86
2023-05-09T01:53:52.177Z,76.80
2023-05-09T01:54:54.748Z,76.20
2023-05-09T01:55:58.146Z,76.40
2023-05-09T01:57:00.190Z,76.25
2023-05-09T01:58:04.054Z,76.30
2023-05-09T01:59:07.858Z,76.74
2023-05-09T02:00:10.889Z,76.41
2023-05-09T02:01:15.064Z,77.31
2023-05-09T02:02:17.611Z,77.88
2023-05-09T02:03:20.458Z,78.28
2023-05-09T02:04:22.591Z,79.11
2023-05-09T02:05:26.666Z,78.53
2023-05-09T02:06:30.451Z,78.21
2023-05-09T02:07:33.079Z,78.31
2023-05-09T02:08:35.470Z,77.96
2023-05-09T02:09:37.338Z,78.03
2023-05-09T02:10:39.303Z,77.70
2023-05-09T02:11:41.201Z,77.35
2023-05-09T02:12:43.135Z,77.54
2023-05-09T02:13:45.074Z,77.98
2023-05-09T02:14:47.064Z,78.33
2023-05-09T02:15:49.217Z,78.70
2023-05-09T02:16:51.789Z,78.88
2023-05-09T02:17:53.765Z,78.97
2023-05-09T02:18:55.803Z,78.84
2023-05-09T02:19:57.698Z,78.74
2023-05-09T02:20:59.555Z,78.12
2023-05-09T02:22:01.984Z,78.87
2023-05-09T02:23:04.128Z,78.18
2023-05-09T02:24:06.331Z,78.10
2023-05-09T02:25:09.064Z,79.29
2023-05-09T02:26:11.445Z,78.73
2023-05-09T02:27:14.180Z,77.94
2023-05-09T02:28:16.815Z,77.87
2023-05-09T02:29:20.909Z,77.74
2023-05-09T02:30:28.100Z,77.95
2023-05-09T02:31:30.742Z,77.58
2023-05-09T02:32:34.180Z,77.94
2023-05-09T02:33:37.756Z,77.72
2023-05-09T02:34:40.033Z,77.29
2023-05-09T02:35:43.764Z,77.68
2023-05-09T02:36:46.005Z,78.29
2023-05-09T02:37:47.860Z,77.84
2023-05-09T02:38:49.804Z,78.51
2023-05-09T02:39:52.087Z,78.53
2023-05-09T02:40:54.083Z,78.53
2023-05-09T02:41:56.018Z,78.49
2023-05-09T02:42:58.082Z,78.72
2023-05-09T02:43:59.965Z,78.76
2023-05-09T02:45:01.814Z,79.11
2023-05-09T02:46:03.939Z,78.63
2023-05-09T02:47:06.958Z,78.33
2023-05-09T02:48:09.467Z,78.86
2023-05-09T02:49:19.519Z,78.58
2023-05-09T02:50:29.181Z,78.42
2023-05-09T02:51:31.537Z,79.35
2023-05-09T02:52:33.466Z,79.64
2023-05-09T02:53:35.362Z,78.96
2023-05-09T02:54:37.517Z,78.75
2023-05-09T02:55:39.386Z,79.44
2023-05-09T02:56:41.236Z,79.26
2023-05-09T02:57:43.172Z,79.06
2023-05-09T02:58:51.374Z,78.97
2023-05-09T02:59:53.407Z,78.78
2023-05-09T03:00:55.243Z,78.65
2023-05-09T03:01:57.320Z,78.24
2023-05-09T03:03:00.585Z,78.03
2023-05-09T03:04:02.618Z,78.12
2023-05-09T03:05:04.636Z,78.27
2023-05-09T03:06:08.216Z,78.10
2023-05-09T03:07:10.057Z,78.19
2023-05-09T03:08:11.915Z,78.03
2023-05-09T03:09:13.730Z,78.03
2023-05-09T03:10:15.783Z,77.84
2023-05-09T03:11:17.677Z,77.82
2023-05-09T03:12:19.489Z,78.78
2023-05-09T03:13:21.590Z,79.20
2023-05-09T03:14:23.750Z,79.28
2023-05-09T03:15:25.673Z,79.74
2023-05-09T03:16:27.435Z,80.47
2023-05-09T03:17:29.355Z,81.07
2023-05-09T03:18:31.290Z,81.03
2023-05-09T03:19:33.272Z,81.40
2023-05-09T03:20:35.244Z,81.38
2023-05-09T03:21:37.177Z,81.23
2023-05-09T03:22:39.603Z,81.09
2023-05-09T03:23:41.682Z,80.74
2023-05-09T03:24:44.251Z,81.14
2023-05-09T03:25:46.233Z,81.46
2023-05-09T03:26:48.085Z,81.40
2023-05-09T03:27:49.934Z,81.82
2023-05-09T03:28:51.910Z,82.20
2023-05-09T03:29:53.782Z,82.59
2023-05-09T03:30:55.748Z,82.14
2023-05-09T03:31:57.628Z,81.89
2023-05-09T03:32:59.527Z,82.08
2023-05-09T03:34:01.392Z,81.39
2023-05-09T03:35:03.218Z,80.82
2023-05-09T03:36:05.908Z,80.30
2023-05-09T03:37:07.829Z,80.26
2023-05-09T03:38:10.287Z,80.24
2023-05-09T03:39:12.108Z,80.14
2023-05-09T03:40:14.039Z,80.94
2023-05-09T03:41:17.428Z,80.48
2023-05-09T03:42:19.351Z,80.15
2023-05-09T03:43:21.143Z,79.66
2023-05-09T03:44:22.992Z,79.45
2023-05-09T03:45:24.879Z,79.65
2023-05-09T03:46:26.873Z,79.34
2023-05-09T03:47:28.818Z,80.00
2023-05-09T03:48:30.798Z,79.57
2023-05-09T03:49:32.648Z,79.27
2023-05-09T03:50:34.472Z,78.80
2023-05-09T03:51:37.102Z,79.33
2023-05-09T03:52:39.106Z,79.34
2023-05-09T03:53:41.038Z,79.15
2023-05-09T03:54:42.899Z,78.83
2023-05-09T03:55:44.772Z,78.78
2023-05-09T03:56:46.634Z,78.64
2023-05-09T03:57:48.491Z,78.63
2023-05-09T03:58:50.353Z,78.62
2023-05-09T03:59:52.237Z,78.83
2023-05-09T04:00:54.172Z,79.01
2023-05-09T04:01:56.319Z,78.64
2023-05-09T04:02:58.257Z,78.18
2023-05-09T04:04:00.607Z,77.66
2023-05-09T04:05:02.474Z,77.30
2023-05-09T04:06:05.240Z,76.88
2023-05-09T04:07:07.170Z,76.89
2023-05-09T04:08:09.013Z,76.53
2023-05-09T04:09:10.928Z,76.44
2023-05-09T04:10:12.821Z,76.22
2023-05-09T04:11:14.684Z,76.29
2023-05-09T04:12:16.661Z,76.38
2023-05-09T04:13:18.531Z,76.58
2023-05-09T04:14:20.447Z,76.70
2023-05-09T04:15:22.296Z,76.50
2023-05-09T04:16:24.369Z,76.54
2023-05-09T04:17:26.520Z,76.37
2023-05-09T04:18:28.525Z,76.26
2023-05-09T04:19:30.326Z,76.00
2023-05-09T04:20:32.188Z,75.82
2023-05-09T04:21:34.254Z,75.98
2023-05-09T04:22:36.565Z,75.79
2023-05-09T04:23:39.311Z,76.04
2023-05-09T04:24:41.389Z,75.83
2023-05-09T04:25:43.382Z,75.57
2023-05-09T04:26:45.351Z,75.85
2023-05-09T04:27:47.218Z,75.83
2023-05-09T04:28:49.064Z,76.07
2023-05-09T04:29:51.006Z,75.72
2023-05-09T04:30:53.017Z,76.05
2023-05-09T04:31:55.169Z,75.98
2023-05-09T04:32:57.283Z,76.52
2023-05-09T04:33:59.223Z,76.13
2023-05-09T04:35:01.542Z,75.96
2023-05-09T04:36:03.510Z,75.97
2023-05-09T04:37:06.007Z,75.87
2023-05-09T04:38:08.085Z,76.04
2023-05-09T04:39:11.017Z,75.87
2023-05-09T04:40:13.705Z,75.39
2023-05-09T04:41:15.679Z,75.43
2023-05-09T04:42:17.547Z,75.26
2023-05-09T04:43:19.536Z,75.78
2023-05-09T04:44:22.140Z,75.84
2023-05-09T04:45:24.008Z,75.11
2023-05-09T04:46:26.362Z,75.69
2023-05-09T04:47:28.396Z,75.60
2023-05-09T04:48:30.343Z,75.76
2023-05-09T04:49:32.195Z,75.86
2023-05-09T04:50:34.068Z,75.69
2023-05-09T04:51:35.982Z,75.53
2023-05-09T04:52:37.808Z,75.61
2023-05-09T04:53:39.633Z,75.32
2023-05-09T04:54:41.487Z,75.40
2023-05-09T04:55:43.492Z,75.14
2023-05-09T04:56:45.383Z,75.30
2023-05-09T04:57:47.214Z,75.54
2023-05-09T04:58:49.070Z,75.98
2023-05-09T04:59:50.909Z,76.14
2023-05-09T05:00:53.368Z,75.74
2023-05-09T05:01:55.999Z,75.87
2023-05-09T05:02:57.864Z,75.94
2023-05-09T05:03:59.727Z,75.82
2023-05-09T05:05:18.012Z,75.94
2023-05-09T05:06:23.429Z,75.95
2023-05-09T05:07:25.290Z,75.65
2023-05-09T05:08:27.168Z,75.19
2023-05-09T05:09:29.059Z,75.18
2023-05-09T05:10:30.940Z,75.07
2023-05-09T05:11:32.860Z,74.89
2023-05-09T05:12:34.728Z,75.15
2023-05-09T05:13:36.663Z,75.11
2023-05-09T05:14:38.585Z,74.89
2023-05-09T05:15:40.996Z,75.07
2023-05-09T05:16:42.841Z,74.93
2023-05-09T05:17:44.813Z,74.77
2023-05-09T05:18:46.671Z,74.71
2023-05-09T05:19:48.578Z,74.22
2023-05-09T05:20:50.542Z,74.70
2023-05-09T05:21:52.553Z,75.02
2023-05-09T05:22:55.271Z,75.11
2023-05-09T05:23:57.087Z,75.22
2023-05-09T05:24:58.933Z,75.01
2023-05-09T05:26:01.160Z,74.70
2023-05-09T05:27:03.457Z,74.59
2023-05-09T05:28:05.462Z,74.58
2023-05-09T05:29:07.551Z,74.92
2023-05-09T05:30:09.723Z,74.49
2023-05-09T05:31:11.634Z,75.13
2023-05-09T05:32:13.579Z,74.47
2023-05-09T05:33:15.458Z,74.35
2023-05-09T05:34:17.391Z,74.31
2023-05-09T05:35:19.749Z,74.17
2023-05-09T05:36:21.605Z,74.74
2023-05-09T05:37:23.779Z,74.73
2023-05-09T05:38:25.772Z,75.01
2023-05-09T05:39:27.649Z,74.72
2023-05-09T05:40:29.491Z,74.56
2023-05-09T05:41:31.402Z,74.44
2023-05-09T05:42:33.395Z,74.28
2023-05-09T05:43:35.317Z,74.46
2023-05-09T05:44:37.160Z,74.33
2023-05-09T05:45:39.015Z,74.47
2023-05-09T05:46:41.014Z,74.74
2023-05-09T05:47:42.873Z,74.65
2023-05-09T05:48:45.546Z,74.93
2023-05-09T05:49:47.404Z,74.58
2023-05-09T05:50:49.320Z,74.53
2023-05-09T05:51:51.771Z,74.53
2023-05-09T05:52:53.604Z,75.07
2023-05-09T05:53:55.492Z,75.21
2023-05-09T05:54:57.330Z,75.25
2023-05-09T05:55:59.164Z,74.84
2023-05-09T05:57:01.134Z,75.14
2023-05-09T05:58:03.107Z,75.05
2023-05-09T05:59:05.063Z,74.84
2023-05-09T06:00:11.454Z,74.60
2023-05-09T06:01:14.129Z,74.57
2023-05-09T06:02:16.773Z,74.13
2023-05-09T06:03:18.751Z,74.20
2023-05-09T06:04:21.498Z,74.32
2023-05-09T06:05:23.365Z,74.54
2023-05-09T06:06:26.524Z,74.19
2023-05-09T06:07:28.428Z,74.44
2023-05-09T06:08:30.227Z,74.93
2023-05-09T06:09:32.170Z,75.39
2023-05-09T06:10:33.975Z,75.20
2023-05-09T06:11:35.749Z,75.58
2023-05-09T06:12:37.694Z,75.35
2023-05-09T06:13:39.527Z,75.13
2023-05-09T06:14:41.460Z,74.75
2023-05-09T06:15:43.345Z,74.72
2023-05-09T06:16:45.181Z,74.47
2023-05-09T06:17:47.144Z,74.31
2023-05-09T06:18:48.979Z,74.87
2023-05-09T06:19:50.846Z,74.42
2023-05-09T06:20:52.776Z,75.29
2023-05-09T06:21:54.782Z,74.62
2023-05-09T06:22:56.738Z,74.68
2023-05-09T06:24:09.781Z,74.60
2023-05-09T06:25:14.608Z,74.50
2023-05-09T06:26:16.641Z,74.40
2023-05-09T06:27:18.495Z,74.53
2023-05-09T06:28:20.647Z,74.32
2023-05-09T06:29:22.418Z,74.02
2023-05-09T06:30:26.739Z,73.78
2023-05-09T06:31:29.010Z,74.40
2023-05-09T06:32:30.955Z,74.42
2023-05-09T06:33:32.881Z,74.25
2023-05-09T06:34:34.823Z,74.29
2023-05-09T06:35:36.761Z,74.16
2023-05-09T06:36:38.577Z,74.07
2023-05-09T06:37:40.479Z,74.16
2023-05-09T06:38:42.372Z,74.21
2023-05-09T06:39:44.180Z,73.89
2023-05-09T06:40:46.129Z,74.00
2023-05-09T06:41:47.990Z,73.95
2023-05-09T06:42:49.858Z,73.54
2023-05-09T06:43:52.558Z,73.78
2023-05-09T06:44:54.416Z,73.64
2023-05-09T06:45:56.411Z,72.84
2023-05-09T06:46:58.259Z,72.75
2023-05-09T06:48:00.193Z,73.30
2023-05-09T06:49:02.794Z,73.24
2023-05-09T06:50:04.669Z,72.16
2023-05-09T06:51:06.582Z,72.07
2023-05-09T06:52:08.970Z,71.69
2023-05-09T06:53:10.843Z,72.09
2023-05-09T06:54:12.746Z,72.21
2023-05-09T06:55:14.986Z,73.00
2023-05-09T06:56:19.464Z,73.69
2023-05-09T06:57:21.941Z,74.51
2023-05-09T06:58:23.989Z,74.48
2023-05-09T06:59:26.051Z,73.78
2023-05-09T07:00:27.969Z,73.73
2023-05-09T07:01:30.060Z,73.38
2023-05-09T07:02:31.932Z,73.13
2023-05-09T07:03:33.738Z,73.31
2023-05-09T07:04:35.593Z,72.64
2023-05-09T07:05:37.626Z,73.77
2023-05-09T07:06:39.577Z,74.57
2023-05-09T07:07:41.424Z,74.33
2023-05-09T07:08:43.349Z,73.67
2023-05-09T07:09:45.168Z,73.47
2023-05-09T07:10:47.101Z,73.93
2023-05-09T07:11:48.980Z,73.58
2023-05-09T07:12:51.276Z,73.54
2023-05-09T07:13:53.179Z,72.70
2023-05-09T07:14:55.050Z,73.00
2023-05-09T07:15:57.530Z,72.14
2023-05-09T07:17:13.622Z,73.06
2023-05-09T07:18:21.259Z,74.16
2023-05-09T07:19:23.161Z,74.00
2023-05-09T07:20:25.948Z,74.48
2023-05-09T07:21:27.886Z,73.77
2023-05-09T07:22:31.604Z,73.27
2023-05-09T07:23:37.026Z,72.85
2023-05-09T07:24:38.968Z,73.77
2023-05-09T07:25:40.886Z,73.77
2023-05-09T07:26:42.720Z,73.58
2023-05-09T07:27:44.621Z,73.23
2023-05-09T07:28:46.537Z,73.09
2023-05-09T07:29:49.601Z,72.65
2023-05-09T07:30:51.524Z,72.54
2023-05-09T07:31:53.516Z,71.94
2023-05-09T07:32:55.468Z,72.36
2023-05-09T07:33:57.368Z,72.54
2023-05-09T07:34:59.270Z,73.17
2023-05-09T07:36:01.440Z,72.72
2023-05-09T07:37:03.367Z,71.77
2023-05-09T07:38:06.642Z,71.90
2023-05-09T07:39:08.486Z,72.42
2023-05-09T07:40:10.562Z,72.62
2023-05-09T07:41:12.533Z,71.59
2023-05-09T07:42:14.363Z,71.47
2023-05-09T07:43:16.263Z,70.62
2023-05-09T07:44:18.103Z,70.67
2023-05-09T07:45:25.257Z,70.01
2023-05-09T07:46:27.316Z,70.66
2023-05-09T07:47:29.222Z,70.88
2023-05-09T07:48:31.128Z,70.43
2023-05-09T07:49:33.051Z,71.71
2023-05-09T07:50:34.925Z,70.93
2023-05-09T07:51:36.996Z,71.50
2023-05-09T07:52:38.841Z,70.02
2023-05-09T07:53:40.969Z,70.14
2023-05-09T07:54:42.848Z,69.78
2023-05-09T07:55:50.422Z,71.56
2023-05-09T07:56:52.394Z,70.84
2023-05-09T07:57:54.238Z,70.50
2023-05-09T07:58:56.106Z,71.71
2023-05-09T07:59:58.169Z,70.01
2023-05-09T08:01:00.069Z,70.53
2023-05-09T08:02:02.219Z,70.37
2023-05-09T08:03:04.280Z,72.66
2023-05-09T08:04:07.216Z,71.02
2023-05-09T08:05:11.874Z,70.77
2023-05-09T08:06:13.783Z,70.29
2023-05-09T08:07:15.774Z,69.44
2023-05-09T08:08:17.643Z,69.12
2023-05-09T08:09:19.641Z,70.36
2023-05-09T08:10:23.565Z,69.09
2023-05-09T08:11:25.440Z,69.30
2023-05-09T08:12:27.414Z,69.86
2023-05-09T08:13:29.360Z,68.04
2023-05-09T08:14:31.224Z,68.44
2023-05-09T08:15:33.110Z,68.87
2023-05-09T08:16:35.202Z,71.64
2023-05-09T08:17:37.267Z,69.76
2023-05-09T08:18:39.061Z,69.56
2023-05-09T08:19:41.076Z,68.21
2023-05-09T08:20:43.003Z,68.86
2023-05-09T08:21:45.007Z,67.73
2023-05-09T08:22:46.964Z,67.28
2023-05-09T08:23:48.800Z,67.41
2023-05-09T08:24:50.753Z,66.88
2023-05-09T08:25:55.675Z,67.12
2023-05-09T08:26:57.564Z,67.04
2023-05-09T08:27:59.634Z,66.77
2023-05-09T08:29:01.877Z,65.60
2023-05-09T08:30:04.521Z,66.47
2023-05-09T08:31:06.481Z,65.73
2023-05-09T08:32:08.873Z,66.59
2023-05-09T08:33:10.779Z,67.08
2023-05-09T08:34:12.634Z,67.70
2023-05-09T08:35:14.860Z,66.30
2023-05-09T08:36:16.917Z,65.82
2023-05-09T08:37:18.768Z,67.00
2023-05-09T08:38:21.085Z,68.32
2023-05-09T08:39:22.892Z,68.60
2023-05-09T08:40:24.818Z,66.26
2023-05-09T08:41:30.429Z,66.58
2023-05-09T08:42:32.467Z,65.94
2023-05-09T08:43:35.902Z,66.23
2023-05-09T08:44:37.791Z,65.61
2023-05-09T08:45:48.259Z,65.10
2023-05-09T08:46:52.314Z,65.31
2023-05-09T08:47:54.998Z,65.47
2023-05-09T08:48:57.581Z,66.42
2023-05-09T08:49:59.415Z,65.63
2023-05-09T08:51:01.660Z,67.96
2023-05-09T08:52:03.856Z,67.70
2023-05-09T08:53:05.900Z,66.63
2023-05-09T08:54:08.465Z,65.97
2023-05-09T08:55:10.512Z,62.98
2023-05-09T08:56:12.349Z,62.68
2023-05-09T08:57:16.207Z,62.61
2023-05-09T08:58:20.035Z,64.09
2023-05-09T08:59:22.444Z,63.80
2023-05-09T09:00:25.802Z,64.26
2023-05-09T09:01:28.139Z,64.94
2023-05-09T09:02:30.458Z,63.75
2023-05-09T09:03:33.074Z,63.63
2023-05-09T09:04:34.993Z,63.43
2023-05-09T09:05:41.729Z,64.88
2023-05-09T09:06:44.081Z,64.11
2023-05-09T09:07:46.748Z,63.51
2023-05-09T09:08:49.282Z,64.15
2023-05-09T09:09:52.500Z,62.57
2023-05-09T09:10:54.609Z,60.06
2023-05-09T09:11:57.227Z,62.14
2023-05-09T09:13:00.574Z,61.75
2023-05-09T09:14:15.403Z,62.76
2023-05-09T09:15:18.747Z,63.30
2023-05-09T09:16:21.946Z,60.44
2023-05-09T09:17:28.519Z,59.20
2023-05-09T09:18:31.028Z,62.28
2023-05-09T09:19:34.335Z,63.64
2023-05-09T09:20:37.950Z,63.15
2023-05-09T09:21:45.055Z,61.51
2023-05-09T09:22:48.252Z,59.83
2023-05-09T09:23:51.791Z,62.88
2023-05-09T09:24:53.674Z,60.62
2023-05-09T09:26:00.078Z,61.26
2023-05-09T09:27:06.684Z,60.47
2023-05-09T09:28:08.524Z,61.98
2023-05-09T09:29:10.383Z,62.68
2023-05-09T09:30:13.312Z,61.82
2023-05-09T09:31:25.904Z,61.24
2023-05-09T09:32:33.229Z,58.98
2023-05-09T09:33:36.210Z,59.20
2023-05-09T09:34:38.491Z,58.60
2023-05-09T09:35:41.420Z,59.22
2023-05-09T09:36:43.576Z,59.52
2023-05-09T09:37:45.408Z,58.06
2023-05-09T09:38:47.244Z,59.00
2023-05-09T09:39:58.152Z,58.06
2023-05-09T09:41:00.001Z,58.35
2023-05-09T09:42:12.466Z,57.87
2023-05-09T09:43:14.763Z,58.59
2023-05-09T09:44:23.638Z,56.45
2023-05-09T09:45:25.669Z,58.07
2023-05-09T09:46:27.553Z,59.32
2023-05-09T09:47:33.161Z,56.64
2023-05-09T09:48:35.573Z,57.63
2023-05-09T09:49:37.441Z,57.72
2023-05-09T09:50:39.361Z,58.55
2023-05-09T09:51:41.765Z,57.56
2023-05-09T09:52:51.172Z,56.95
2023-05-09T09:53:53.173Z,57.45
2023-05-09T09:54:58.347Z,56.92
2023-05-09T09:56:00.209Z,56.43
2023-05-09T09:57:02.151Z,55.71
2023-05-09T09:58:04.677Z,54.12
2023-05-09T09:59:13.403Z,52.72
2023-05-09T10:00:16.724Z,55.92
2023-05-09T10:01:20.386Z,56.34
2023-05-09T10:02:24.934Z,58.54
2023-05-09T10:03:35.422Z,56.68
2023-05-09T10:04:38.091Z,55.29
2023-05-09T10:05:41.178Z,55.36
2023-05-09T10:06:51.971Z,54.07
2023-05-09T10:07:58.178Z,54.00
2023-05-09T10:09:00.035Z,56.17
2023-05-09T10:10:06.415Z,56.43
2023-05-09T10:11:09.394Z,53.52
2023-05-09T10:12:12.321Z,55.90
2023-05-09T10:13:14.422Z,53.86
2023-05-09T10:14:17.118Z,53.56
2023-05-09T10:15:20.576Z,52.96
2023-05-09T10:16:35.695Z,52.79
2023-05-09T10:17:44.318Z,52.22
2023-05-09T10:18:46.440Z,48.93
2023-05-09T10:19:50.998Z,49.58
2023-05-09T10:20:53.690Z,51.18
2023-05-09T10:21:59.645Z,52.23
2023-05-09T10:23:02.628Z,51.48
2023-05-09T10:24:05.442Z,51.53
2023-05-09T10:25:13.693Z,51.42
2023-05-09T10:26:23.636Z,53.12
2023-05-09T10:27:27.490Z,52.05
2023-05-09T10:28:32.178Z,48.43
2023-05-09T10:29:49.540Z,51.38
2023-05-09T10:30:59.617Z,50.12
2023-05-09T10:32:06.820Z,49.66
2023-05-09T10:33:09.644Z,50.25
2023-05-09T10:34:13.421Z,47.36
2023-05-09T10:35:17.520Z,47.77
2023-05-09T10:36:21.149Z,48.16
2023-05-09T10:37:23.062Z,46.73
2023-05-09T10:38:25.559Z,45.66
2023-05-09T10:39:28.261Z,48.69
2023-05-09T10:40:31.389Z,46.49
2023-05-09T10:41:33.499Z,49.20
2023-05-09T10:42:35.952Z,48.39
2023-05-09T10:43:37.972Z,48.11
2023-05-09T10:44:40.144Z,48.67
2023-05-09T10:45:42.274Z,48.30
2023-05-09T10:46:45.402Z,48.09
2023-05-09T10:47:50.097Z,44.65
2023-05-09T10:48:52.830Z,46.21
2023-05-09T10:49:55.169Z,44.51
2023-05-09T10:50:57.661Z,46.82
2023-05-09T10:51:59.622Z,46.11
2023-05-09T10:53:04.230Z,47.72
2023-05-09T10:54:13.990Z,46.46
2023-05-09T10:55:16.121Z,47.90
2023-05-09T10:56:25.268Z,46.87
2023-05-09T10:57:28.430Z,46.05
2023-05-09T10:58:33.477Z,46.27
2023-05-09T10:59:37.638Z,43.89
2023-05-09T11:00:41.848Z,44.58
2023-05-09T11:01:43.834Z,43.86
2023-05-09T11:03:06.020Z,47.19
2023-05-09T11:04:12.035Z,45.49
2023-05-09T11:05:18.178Z,44.98
2023-05-09T11:06:38.473Z,44.67
2023-05-09T11:07:40.569Z,43.81
2023-05-09T11:08:42.621Z,43.46
2023-05-09T11:09:44.513Z,42.09
2023-05-09T11:10:46.558Z,43.34
2023-05-09T11:11:52.565Z,42.94
2023-05-09T11:12:59.209Z,42.74
2023-05-09T11:14:01.181Z,43.40
2023-05-09T11:15:06.922Z,41.16
2023-05-09T11:16:09.445Z,43.85
2023-05-09T11:17:32.936Z,42.81
2023-05-09T11:18:34.792Z,43.47
2023-05-09T11:19:37.350Z,41.85
2023-05-09T11:20:49.581Z,41.84
2023-05-09T11:22:02.659Z,42.85
2023-05-09T11:23:05.456Z,42.54
2023-05-09T11:24:17.354Z,43.03
2023-05-09T11:25:25.409Z,43.50
2023-05-09T11:26:30.856Z,41.10
2023-05-09T11:27:37.588Z,40.82
2023-05-09T11:28:39.521Z,40.77
2023-05-09T11:29:46.181Z,42.51
2023-05-09T11:30:48.129Z,41.31
2023-05-09T11:32:06.935Z,42.61
2023-05-09T11:33:25.151Z,41.80
2023-05-09T11:34:26.990Z,42.77
2023-05-09T11:35:28.903Z,39.62
2023-05-09T11:36:32.299Z,42.27
2023-05-09T11:37:34.172Z,43.48
2023-05-09T11:38:43.338Z,39.58
2023-05-09T11:39:58.903Z,39.97
2023-05-09T11:41:01.147Z,41.49
2023-05-09T11:42:04.441Z,39.70
2023-05-09T11:43:07.489Z,41.91
2023-05-09T11:44:19.188Z,41.33
2023-05-09T11:45:21.856Z,40.71
2023-05-09T11:46:23.775Z,43.19
2023-05-09T11:47:26.128Z,40.04
2023-05-09T11:48:28.065Z,39.43
2023-05-09T11:49:30.073Z,41.25
2023-05-09T11:50:32.076Z,40.04
2023-05-09T11:51:36.765Z,40.26
2023-05-09T11:52:39.099Z,40.64
2023-05-09T11:53:47.305Z,40.74
2023-05-09T11:54:49.934Z,38.74
2023-05-09T11:55:51.933Z,40.33
2023-05-09T11:56:53.822Z,40.07
2023-05-09T11:57:55.945Z,41.66
2023-05-09T11:58:58.921Z,39.32
2023-05-09T12:00:01.587Z,37.49
2023-05-09T12:01:03.462Z,38.03
2023-05-09T12:02:06.537Z,37.74
2023-05-09T12:03:08.492Z,38.99
2023-05-09T12:04:10.603Z,40.53
2023-05-09T12:05:18.001Z,39.70
2023-05-09T12:06:20.370Z,39.58
2023-05-09T12:07:22.241Z,39.28
2023-05-09T12:08:28.908Z,39.42
2023-05-09T12:09:34.262Z,39.89
2023-05-09T12:10:39.729Z,41.79
2023-05-09T12:11:51.149Z,38.17
2023-05-09T12:12:55.857Z,38.44
2023-05-09T12:13:57.815Z,39.07
2023-05-09T12:15:02.382Z,40.22
2023-05-09T12:16:04.496Z,37.51
2023-05-09T12:17:10.139Z,38.38
2023-05-09T12:18:12.111Z,40.17
2023-05-09T12:19:14.632Z,38.50
2023-05-09T12:20:16.568Z,39.49
2023-05-09T12:21:19.451Z,39.42
2023-05-09T12:22:22.149Z,39.94
2023-05-09T12:23:24.055Z,40.75
2023-05-09T12:24:28.968Z,39.81
2023-05-09T12:25:30.869Z,39.78
2023-05-09T12:26:34.006Z,40.61
2023-05-09T12:27:36.530Z,38.39
2023-05-09T12:28:38.855Z,38.63
2023-05-09T12:29:42.495Z,40.11
2023-05-09T12:30:44.725Z,41.28
2023-05-09T12:31:46.780Z,39.50
2023-05-09T12:32:48.776Z,39.75
2023-05-09T12:33:50.778Z,38.18
2023-05-09T12:34:52.685Z,38.57
2023-05-09T12:36:11.492Z,39.23
2023-05-09T12:37:18.276Z,37.02
2023-05-09T12:38:23.580Z,37.63
2023-05-09T12:39:26.914Z,39.13
2023-05-09T12:40:28.767Z,38.91
2023-05-09T12:41:39.199Z,37.70
2023-05-09T12:42:46.411Z,37.90
2023-05-09T12:43:49.876Z,37.65
2023-05-09T12:44:51.817Z,40.46
2023-05-09T12:45:53.728Z,39.50
2023-05-09T12:47:00.283Z,39.35
2023-05-09T12:48:02.872Z,37.23
2023-05-09T12:49:05.642Z,35.91
2023-05-09T12:50:08.446Z,37.81
2023-05-09T12:51:10.331Z,36.27
2023-05-09T12:52:17.832Z,38.97
2023-05-09T12:53:26.627Z,37.10
2023-05-09T12:54:29.896Z,37.35
2023-05-09T12:55:33.109Z,38.23
2023-05-09T12:56:35.979Z,38.32
2023-05-09T12:57:39.195Z,37.10
2023-05-09T12:58:41.700Z,38.08
2023-05-09T12:59:44.079Z,36.78
2023-05-09T13:00:46.599Z,36.88
2023-05-09T13:01:51.770Z,37.06
2023-05-09T13:02:53.887Z,38.35
2023-05-09T13:04:06.227Z,38.30
2023-05-09T13:05:12.270Z,37.95
2023-05-09T13:06:14.592Z,38.33
2023-05-09T13:07:16.483Z,36.69
2023-05-09T13:08:21.317Z,36.27
2023-05-09T13:09:23.824Z,35.60
2023-05-09T13:10:30.712Z,37.96
2023-05-09T13:11:32.678Z,35.68
2023-05-09T13:12:35.173Z,36.22
2023-05-09T13:13:37.183Z,35.53
2023-05-09T13:14:39.050Z,37.08
2023-05-09T13:15:41.008Z,37.58
2023-05-09T13:16:43.666Z,37.46
2023-05-09T13:17:47.613Z,36.33
2023-05-09T13:18:49.511Z,36.03
2023-05-09T13:19:52.063Z,36.97
2023-05-09T13:20:53.896Z,36.08
2023-05-09T13:21:55.840Z,37.15
2023-05-09T13:22:58.010Z,36.00
2023-05-09T13:23:59.920Z,37.43
2023-05-09T13:25:02.125Z,35.60
2023-05-09T13:26:04.033Z,36.59
2023-05-09T13:27:06.104Z,35.69
2023-05-09T13:28:09.010Z,34.17
2023-05-09T13:29:10.901Z,36.52
2023-05-09T13:30:15.138Z,35.97
2023-05-09T13:31:18.334Z,37.02
2023-05-09T13:32:20.344Z,36.13
2023-05-09T13:33:26.342Z,36.12
2023-05-09T13:34:28.848Z,35.97
2023-05-09T13:35:30.656Z,36.48